sensor_id;sensor_type;location;lat;lon;timestamp;temperature;humidity
32215;DHT22;18708;53.124;23.190;2022-07-23T00:00:28;21.60;99.90
32215;DHT22;18708;53.124;23.190;2022-07-23T00:02:53;21.60;99.90
32215;DHT22;18708;53.124;23.190;2022-07-23T00:05:19;21.50;99.90
32215;DHT22;18708;53.124;23.190;2022-07-23T00:07:44;21.50;99.90
32215;DHT22;18708;53.124;23.190;2022-07-23T00:10:10;21.40;99.90
32215;DHT22;18708;53.124;23.190;2022-07-23T00:12:36;21.30;99.90
32215;DHT22;18708;53.124;23.190;2022-07-23T00:17:27;21.20;99.90
32215;DHT22;18708;53.124;23.190;2022-07-23T00:19:53;21.20;99.90
32215;DHT22;18708;53.124;23.190;2022-07-23T00:22:19;21.10;99.90
32215;DHT22;18708;53.124;23.190;2022-07-23T00:27:10;21.10;99.90
32215;DHT22;18708;53.124;23.190;2022-07-23T00:29:38;21.10;99.90
32215;DHT22;18708;53.124;23.190;2022-07-23T00:32:04;21.10;99.90
32215;DHT22;18708;53.124;23.190;2022-07-23T00:34:30;20.90;99.90
32215;DHT22;18708;53.124;23.190;2022-07-23T00:36:55;20.90;99.90
32215;DHT22;18708;53.124;23.190;2022-07-23T00:51:31;20.70;99.90
32215;DHT22;18708;53.124;23.190;2022-07-23T00:53:56;20.50;99.90
32215;DHT22;18708;53.124;23.190;2022-07-23T01:01:14;20.40;99.90
32215;DHT22;18708;53.124;23.190;2022-07-23T01:03:40;20.30;99.90
32215;DHT22;18708;53.124;23.190;2022-07-23T01:06:05;20.30;99.90
32215;DHT22;18708;53.124;23.190;2022-07-23T01:15:49;20.20;99.90
32215;DHT22;18708;53.124;23.190;2022-07-23T01:18:14;20.10;99.90
32215;DHT22;18708;53.124;23.190;2022-07-23T01:20:40;19.90;99.90
32215;DHT22;18708;53.124;23.190;2022-07-23T01:23:05;19.90;99.90
32215;DHT22;18708;53.124;23.190;2022-07-23T01:25:31;19.80;99.90
32215;DHT22;18708;53.124;23.190;2022-07-23T01:30:22;19.80;99.90
32215;DHT22;18708;53.124;23.190;2022-07-23T01:32:48;19.80;99.90
32215;DHT22;18708;53.124;23.190;2022-07-23T01:35:13;19.70;99.90
32215;DHT22;18708;53.124;23.190;2022-07-23T01:37:39;19.60;99.90
32215;DHT22;18708;53.124;23.190;2022-07-23T01:40:05;19.60;99.90
32215;DHT22;18708;53.124;23.190;2022-07-23T01:42:31;19.50;99.90
32215;DHT22;18708;53.124;23.190;2022-07-23T01:44:56;19.40;99.90
32215;DHT22;18708;53.124;23.190;2022-07-23T01:47:22;19.20;99.90
32215;DHT22;18708;53.124;23.190;2022-07-23T01:49:47;19.00;99.90
32215;DHT22;18708;53.124;23.190;2022-07-23T01:52:13;19.00;99.90
32215;DHT22;18708;53.124;23.190;2022-07-23T01:54:39;18.90;99.90
32215;DHT22;18708;53.124;23.190;2022-07-23T01:57:05;19.00;99.90
32215;DHT22;18708;53.124;23.190;2022-07-23T02:04:23;19.00;99.90
32215;DHT22;18708;53.124;23.190;2022-07-23T02:06:48;19.00;99.90
32215;DHT22;18708;53.124;23.190;2022-07-23T02:09:14;18.90;99.90
32215;DHT22;18708;53.124;23.190;2022-07-23T02:11:40;18.80;99.90
32215;DHT22;18708;53.124;23.190;2022-07-23T02:14:06;18.70;99.90
32215;DHT22;18708;53.124;23.190;2022-07-23T02:16:31;18.60;99.90
32215;DHT22;18708;53.124;23.190;2022-07-23T02:18:57;18.50;99.90
32215;DHT22;18708;53.124;23.190;2022-07-23T02:23:48;18.70;99.90
32215;DHT22;18708;53.124;23.190;2022-07-23T02:28:40;18.80;99.90
32215;DHT22;18708;53.124;23.190;2022-07-23T02:31:05;18.80;99.90
32215;DHT22;18708;53.124;23.190;2022-07-23T02:33:32;18.80;99.90
32215;DHT22;18708;53.124;23.190;2022-07-23T02:35:58;18.90;99.90
32215;DHT22;18708;53.124;23.190;2022-07-23T02:43:15;18.70;99.90
32215;DHT22;18708;53.124;23.190;2022-07-23T02:45:41;18.60;99.90
32215;DHT22;18708;53.124;23.190;2022-07-23T02:48:06;18.60;99.90
32215;DHT22;18708;53.124;23.190;2022-07-23T02:52:58;18.50;99.90
32215;DHT22;18708;53.124;23.190;2022-07-23T02:55:23;18.40;99.90
32215;DHT22;18708;53.124;23.190;2022-07-23T02:57:49;18.40;99.90
32215;DHT22;18708;53.124;23.190;2022-07-23T03:00:14;18.30;99.90
32215;DHT22;18708;53.124;23.190;2022-07-23T03:02:40;18.30;99.90
32215;DHT22;18708;53.124;23.190;2022-07-23T03:05:06;18.30;99.90
32215;DHT22;18708;53.124;23.190;2022-07-23T03:07:31;18.20;99.90
32215;DHT22;18708;53.124;23.190;2022-07-23T03:09:57;18.20;99.90
32215;DHT22;18708;53.124;23.190;2022-07-23T03:12:22;18.10;99.90
32215;DHT22;18708;53.124;23.190;2022-07-23T03:14:48;18.10;99.90
32215;DHT22;18708;53.124;23.190;2022-07-23T03:17:13;18.00;99.90
32215;DHT22;18708;53.124;23.190;2022-07-23T03:19:39;18.00;99.90
32215;DHT22;18708;53.124;23.190;2022-07-23T03:22:05;18.10;99.90
32215;DHT22;18708;53.124;23.190;2022-07-23T03:27:23;18.20;99.90
32215;DHT22;18708;53.124;23.190;2022-07-23T03:29:53;18.30;99.90
32215;DHT22;18708;53.124;23.190;2022-07-23T03:34:44;18.60;99.90
32215;DHT22;18708;53.124;23.190;2022-07-23T03:37:10;18.60;99.90
32215;DHT22;18708;53.124;23.190;2022-07-23T03:44:27;19.00;99.90
32215;DHT22;18708;53.124;23.190;2022-07-23T03:46:53;19.00;99.90
32215;DHT22;18708;53.124;23.190;2022-07-23T03:49:18;19.30;99.90
32215;DHT22;18708;53.124;23.190;2022-07-23T03:56:36;19.40;99.90
32215;DHT22;18708;53.124;23.190;2022-07-23T03:59:01;19.40;99.90
32215;DHT22;18708;53.124;23.190;2022-07-23T04:01:27;19.40;99.90
32215;DHT22;18708;53.124;23.190;2022-07-23T04:03:53;19.30;99.90
32215;DHT22;18708;53.124;23.190;2022-07-23T04:06:18;19.40;99.90
32215;DHT22;18708;53.124;23.190;2022-07-23T04:08:44;19.40;99.90
32215;DHT22;18708;53.124;23.190;2022-07-23T04:11:14;19.50;99.90
32215;DHT22;18708;53.124;23.190;2022-07-23T04:16:05;19.60;99.90
32215;DHT22;18708;53.124;23.190;2022-07-23T04:18:31;19.60;99.90
32215;DHT22;18708;53.124;23.190;2022-07-23T04:20:57;19.70;99.90
32215;DHT22;18708;53.124;23.190;2022-07-23T04:23:22;19.70;99.90
32215;DHT22;18708;53.124;23.190;2022-07-23T04:25:48;19.70;99.90
32215;DHT22;18708;53.124;23.190;2022-07-23T04:28:13;19.90;99.90
32215;DHT22;18708;53.124;23.190;2022-07-23T04:30:39;20.10;99.90
32215;DHT22;18708;53.124;23.190;2022-07-23T04:35:32;20.30;99.90
32215;DHT22;18708;53.124;23.190;2022-07-23T04:40:24;20.40;99.90
32215;DHT22;18708;53.124;23.190;2022-07-23T04:42:50;20.40;99.90
32215;DHT22;18708;53.124;23.190;2022-07-23T04:45:16;20.60;99.90
32215;DHT22;18708;53.124;23.190;2022-07-23T04:47:41;20.60;99.90
32215;DHT22;18708;53.124;23.190;2022-07-23T04:50:07;20.80;99.90
32215;DHT22;18708;53.124;23.190;2022-07-23T04:52:32;20.70;99.90
32215;DHT22;18708;53.124;23.190;2022-07-23T04:54:58;20.90;99.90
32215;DHT22;18708;53.124;23.190;2022-07-23T04:57:24;20.90;99.90
32215;DHT22;18708;53.124;23.190;2022-07-23T04:59:49;21.00;99.90
32215;DHT22;18708;53.124;23.190;2022-07-23T05:02:15;21.10;99.90
32215;DHT22;18708;53.124;23.190;2022-07-23T05:04:40;21.30;99.90
32215;DHT22;18708;53.124;23.190;2022-07-23T05:07:06;21.40;99.90
32215;DHT22;18708;53.124;23.190;2022-07-23T05:09:31;21.50;99.90
32215;DHT22;18708;53.124;23.190;2022-07-23T05:11:57;21.50;99.90
32215;DHT22;18708;53.124;23.190;2022-07-23T05:14:23;21.60;99.90
32215;DHT22;18708;53.124;23.190;2022-07-23T05:16:48;21.90;99.90
32215;DHT22;18708;53.124;23.190;2022-07-23T05:24:06;22.20;99.90
32215;DHT22;18708;53.124;23.190;2022-07-23T05:26:31;22.30;99.90
32215;DHT22;18708;53.124;23.190;2022-07-23T05:28:57;22.50;99.90
32215;DHT22;18708;53.124;23.190;2022-07-23T05:31:22;22.70;99.90
32215;DHT22;18708;53.124;23.190;2022-07-23T05:33:48;22.70;99.90
32215;DHT22;18708;53.124;23.190;2022-07-23T05:36:13;22.80;99.90
32215;DHT22;18708;53.124;23.190;2022-07-23T05:41:05;23.10;99.90
32215;DHT22;18708;53.124;23.190;2022-07-23T05:43:30;23.10;99.90
32215;DHT22;18708;53.124;23.190;2022-07-23T05:45:56;23.20;99.90
32215;DHT22;18708;53.124;23.190;2022-07-23T05:48:22;23.30;99.90
32215;DHT22;18708;53.124;23.190;2022-07-23T05:50:47;23.40;99.90
32215;DHT22;18708;53.124;23.190;2022-07-23T05:53:13;23.60;99.90
32215;DHT22;18708;53.124;23.190;2022-07-23T05:55:39;23.70;99.90
32215;DHT22;18708;53.124;23.190;2022-07-23T05:58:04;23.70;99.90
32215;DHT22;18708;53.124;23.190;2022-07-23T06:00:30;24.00;99.90
32215;DHT22;18708;53.124;23.190;2022-07-23T06:02:56;24.20;99.90
32215;DHT22;18708;53.124;23.190;2022-07-23T06:05:21;24.30;99.90
32215;DHT22;18708;53.124;23.190;2022-07-23T06:07:47;24.20;99.90
32215;DHT22;18708;53.124;23.190;2022-07-23T06:10:13;24.40;99.90
32215;DHT22;18708;53.124;23.190;2022-07-23T06:12:38;24.40;99.90
32215;DHT22;18708;53.124;23.190;2022-07-23T06:15:04;24.80;99.90
32215;DHT22;18708;53.124;23.190;2022-07-23T06:17:30;24.70;99.90
32215;DHT22;18708;53.124;23.190;2022-07-23T06:19:55;24.90;99.90
32215;DHT22;18708;53.124;23.190;2022-07-23T06:22:21;25.20;99.90
32215;DHT22;18708;53.124;23.190;2022-07-23T06:24:47;25.50;99.90
32215;DHT22;18708;53.124;23.190;2022-07-23T06:27:13;25.50;99.90
32215;DHT22;18708;53.124;23.190;2022-07-23T06:29:39;26.30;99.90
32215;DHT22;18708;53.124;23.190;2022-07-23T06:32:06;26.20;99.90
32215;DHT22;18708;53.124;23.190;2022-07-23T06:34:32;26.20;99.90
32215;DHT22;18708;53.124;23.190;2022-07-23T06:36:58;26.50;99.90
32215;DHT22;18708;53.124;23.190;2022-07-23T06:39:23;26.60;99.90
32215;DHT22;18708;53.124;23.190;2022-07-23T06:41:49;27.40;99.90
32215;DHT22;18708;53.124;23.190;2022-07-23T06:44:15;27.50;99.90
32215;DHT22;18708;53.124;23.190;2022-07-23T06:46:40;28.30;99.90
32215;DHT22;18708;53.124;23.190;2022-07-23T06:49:06;28.30;99.90
32215;DHT22;18708;53.124;23.190;2022-07-23T06:51:32;28.30;99.90
32215;DHT22;18708;53.124;23.190;2022-07-23T06:53:57;28.10;99.90
32215;DHT22;18708;53.124;23.190;2022-07-23T06:56:23;28.00;99.90
32215;DHT22;18708;53.124;23.190;2022-07-23T06:58:49;27.80;99.90
32215;DHT22;18708;53.124;23.190;2022-07-23T07:01:14;27.40;99.90
32215;DHT22;18708;53.124;23.190;2022-07-23T07:03:40;27.50;99.90
32215;DHT22;18708;53.124;23.190;2022-07-23T07:06:06;27.90;99.90
32215;DHT22;18708;53.124;23.190;2022-07-23T07:08:31;28.10;99.90
32215;DHT22;18708;53.124;23.190;2022-07-23T07:10:57;29.00;99.90
32215;DHT22;18708;53.124;23.190;2022-07-23T07:13:22;29.20;99.90
32215;DHT22;18708;53.124;23.190;2022-07-23T07:15:48;29.60;99.90
32215;DHT22;18708;53.124;23.190;2022-07-23T07:18:13;29.60;99.90
32215;DHT22;18708;53.124;23.190;2022-07-23T07:20:39;29.80;99.90
32215;DHT22;18708;53.124;23.190;2022-07-23T07:25:30;30.10;99.90
32215;DHT22;18708;53.124;23.190;2022-07-23T07:27:56;30.50;99.90
32215;DHT22;18708;53.124;23.190;2022-07-23T07:30:21;30.30;99.90
32215;DHT22;18708;53.124;23.190;2022-07-23T07:32:47;30.80;99.90
32215;DHT22;18708;53.124;23.190;2022-07-23T07:35:12;31.30;99.90
32215;DHT22;18708;53.124;23.190;2022-07-23T07:37:38;31.00;99.90
32215;DHT22;18708;53.124;23.190;2022-07-23T07:40:04;31.20;96.10
32215;DHT22;18708;53.124;23.190;2022-07-23T07:42:29;31.20;96.30
32215;DHT22;18708;53.124;23.190;2022-07-23T07:44:57;30.90;99.90
32215;DHT22;18708;53.124;23.190;2022-07-23T07:47:22;31.20;97.40
32215;DHT22;18708;53.124;23.190;2022-07-23T07:49:48;31.70;99.90
32215;DHT22;18708;53.124;23.190;2022-07-23T07:52:14;31.70;94.00
32215;DHT22;18708;53.124;23.190;2022-07-23T07:54:39;32.20;87.80
32215;DHT22;18708;53.124;23.190;2022-07-23T07:57:05;32.10;87.10
32215;DHT22;18708;53.124;23.190;2022-07-23T07:59:30;31.90;93.20
32215;DHT22;18708;53.124;23.190;2022-07-23T08:01:56;31.90;95.30
32215;DHT22;18708;53.124;23.190;2022-07-23T08:06:47;32.30;91.10
32215;DHT22;18708;53.124;23.190;2022-07-23T08:09:13;32.30;93.00
32215;DHT22;18708;53.124;23.190;2022-07-23T08:11:39;32.30;87.10
32215;DHT22;18708;53.124;23.190;2022-07-23T08:14:04;32.10;90.60
32215;DHT22;18708;53.124;23.190;2022-07-23T08:16:30;31.70;92.30
32215;DHT22;18708;53.124;23.190;2022-07-23T08:18:55;32.40;90.10
32215;DHT22;18708;53.124;23.190;2022-07-23T08:21:21;32.00;93.50
32215;DHT22;18708;53.124;23.190;2022-07-23T08:23:46;31.80;92.90
32215;DHT22;18708;53.124;23.190;2022-07-23T08:26:12;31.90;92.50
32215;DHT22;18708;53.124;23.190;2022-07-23T08:28:38;32.30;95.40
32215;DHT22;18708;53.124;23.190;2022-07-23T08:31:03;32.40;91.20
32215;DHT22;18708;53.124;23.190;2022-07-23T08:33:31;32.50;91.50
32215;DHT22;18708;53.124;23.190;2022-07-23T08:35:56;33.10;91.00
32215;DHT22;18708;53.124;23.190;2022-07-23T08:38:22;33.40;84.60
32215;DHT22;18708;53.124;23.190;2022-07-23T08:40:49;33.50;80.10
32215;DHT22;18708;53.124;23.190;2022-07-23T08:43:17;33.50;86.20
32215;DHT22;18708;53.124;23.190;2022-07-23T08:45:44;33.50;80.10
32215;DHT22;18708;53.124;23.190;2022-07-23T08:48:14;33.40;77.50
32215;DHT22;18708;53.124;23.190;2022-07-23T08:50:42;33.30;80.60
32215;DHT22;18708;53.124;23.190;2022-07-23T08:53:08;33.40;85.00
32215;DHT22;18708;53.124;23.190;2022-07-23T08:55:33;33.00;79.10
32215;DHT22;18708;53.124;23.190;2022-07-23T08:57:59;33.00;79.20
32215;DHT22;18708;53.124;23.190;2022-07-23T09:00:25;33.60;86.90
32215;DHT22;18708;53.124;23.190;2022-07-23T09:02:51;33.70;79.20
32215;DHT22;18708;53.124;23.190;2022-07-23T09:05:17;33.90;83.40
32215;DHT22;18708;53.124;23.190;2022-07-23T09:10:27;33.90;81.90
32215;DHT22;18708;53.124;23.190;2022-07-23T09:12:52;33.00;77.80
32215;DHT22;18708;53.124;23.190;2022-07-23T09:15:18;33.40;76.50
32215;DHT22;18708;53.124;23.190;2022-07-23T09:17:43;32.80;85.10
32215;DHT22;18708;53.124;23.190;2022-07-23T09:20:10;33.60;80.30
32215;DHT22;18708;53.124;23.190;2022-07-23T09:22:36;34.20;82.70
32215;DHT22;18708;53.124;23.190;2022-07-23T09:25:03;34.40;72.90
32215;DHT22;18708;53.124;23.190;2022-07-23T09:30:32;34.20;71.80
32215;DHT22;18708;53.124;23.190;2022-07-23T09:33:14;34.90;73.80
32215;DHT22;18708;53.124;23.190;2022-07-23T09:35:47;33.80;73.00
32215;DHT22;18708;53.124;23.190;2022-07-23T09:38:14;33.80;73.10
32215;DHT22;18708;53.124;23.190;2022-07-23T09:40:39;34.60;76.40
32215;DHT22;18708;53.124;23.190;2022-07-23T09:43:05;35.00;73.20
32215;DHT22;18708;53.124;23.190;2022-07-23T09:45:31;34.60;68.80
32215;DHT22;18708;53.124;23.190;2022-07-23T09:48:16;34.60;71.50
32215;DHT22;18708;53.124;23.190;2022-07-23T09:50:42;35.30;66.20
32215;DHT22;18708;53.124;23.190;2022-07-23T09:53:08;35.10;68.30
32215;DHT22;18708;53.124;23.190;2022-07-23T09:55:35;35.50;69.90
32215;DHT22;18708;53.124;23.190;2022-07-23T09:58:06;35.50;69.10
32215;DHT22;18708;53.124;23.190;2022-07-23T10:00:38;35.30;66.70
32215;DHT22;18708;53.124;23.190;2022-07-23T10:03:03;35.20;65.20
32215;DHT22;18708;53.124;23.190;2022-07-23T10:05:30;35.10;62.90
32215;DHT22;18708;53.124;23.190;2022-07-23T10:07:56;35.10;70.20
32215;DHT22;18708;53.124;23.190;2022-07-23T10:10:23;34.70;66.50
32215;DHT22;18708;53.124;23.190;2022-07-23T10:12:49;34.60;66.90
32215;DHT22;18708;53.124;23.190;2022-07-23T10:15:33;33.50;72.50
32215;DHT22;18708;53.124;23.190;2022-07-23T10:17:59;33.70;76.10
32215;DHT22;18708;53.124;23.190;2022-07-23T10:20:24;33.00;67.00
32215;DHT22;18708;53.124;23.190;2022-07-23T10:22:56;32.80;70.90
32215;DHT22;18708;53.124;23.190;2022-07-23T10:35:18;33.80;67.20
32215;DHT22;18708;53.124;23.190;2022-07-23T10:37:45;33.80;68.00
32215;DHT22;18708;53.124;23.190;2022-07-23T10:40:14;33.80;67.00
32215;DHT22;18708;53.124;23.190;2022-07-23T10:42:40;33.00;67.10
32215;DHT22;18708;53.124;23.190;2022-07-23T10:47:51;31.80;72.90
32215;DHT22;18708;53.124;23.190;2022-07-23T10:50:18;32.20;70.00
32215;DHT22;18708;53.124;23.190;2022-07-23T10:55:41;31.80;71.50
32215;DHT22;18708;53.124;23.190;2022-07-23T10:58:07;32.20;67.30
32215;DHT22;18708;53.124;23.190;2022-07-23T11:00:33;33.20;71.20
32215;DHT22;18708;53.124;23.190;2022-07-23T11:03:00;33.30;63.70
32215;DHT22;18708;53.124;23.190;2022-07-23T11:05:41;33.80;64.20
32215;DHT22;18708;53.124;23.190;2022-07-23T11:10:45;34.10;63.30
32215;DHT22;18708;53.124;23.190;2022-07-23T11:34:44;33.10;70.70
32215;DHT22;18708;53.124;23.190;2022-07-23T11:37:12;34.90;63.50
32215;DHT22;18708;53.124;23.190;2022-07-23T11:39:38;34.90;64.50
32215;DHT22;18708;53.124;23.190;2022-07-23T11:42:04;34.90;63.90
32215;DHT22;18708;53.124;23.190;2022-07-23T11:44:39;34.30;64.20
32215;DHT22;18708;53.124;23.190;2022-07-23T11:47:05;34.40;64.70
32215;DHT22;18708;53.124;23.190;2022-07-23T11:49:31;35.40;67.50
32215;DHT22;18708;53.124;23.190;2022-07-23T11:52:07;35.10;61.20
32215;DHT22;18708;53.124;23.190;2022-07-23T11:54:34;35.00;64.60
32215;DHT22;18708;53.124;23.190;2022-07-23T11:57:01;33.50;65.10
32215;DHT22;18708;53.124;23.190;2022-07-23T11:59:28;33.40;65.90
32215;DHT22;18708;53.124;23.190;2022-07-23T12:01:59;33.00;70.90
32215;DHT22;18708;53.124;23.190;2022-07-23T12:04:36;33.90;66.50
32215;DHT22;18708;53.124;23.190;2022-07-23T12:07:02;34.10;68.50
32215;DHT22;18708;53.124;23.190;2022-07-23T12:09:27;34.30;68.20
32215;DHT22;18708;53.124;23.190;2022-07-23T12:11:57;34.90;64.80
32215;DHT22;18708;53.124;23.190;2022-07-23T12:14:23;34.60;62.60
32215;DHT22;18708;53.124;23.190;2022-07-23T12:17:06;34.20;63.70
32215;DHT22;18708;53.124;23.190;2022-07-23T12:19:31;33.90;66.50
32215;DHT22;18708;53.124;23.190;2022-07-23T12:21:57;33.00;65.20
32215;DHT22;18708;53.124;23.190;2022-07-23T12:24:23;32.90;72.30
32215;DHT22;18708;53.124;23.190;2022-07-23T12:29:35;33.90;62.10
32215;DHT22;18708;53.124;23.190;2022-07-23T12:32:02;34.00;60.60
32215;DHT22;18708;53.124;23.190;2022-07-23T12:34:27;33.90;61.50
32215;DHT22;18708;53.124;23.190;2022-07-23T12:36:53;33.50;61.90
32215;DHT22;18708;53.124;23.190;2022-07-23T12:39:31;32.80;63.40
32215;DHT22;18708;53.124;23.190;2022-07-23T12:41:57;33.00;64.90
32215;DHT22;18708;53.124;23.190;2022-07-23T12:44:22;33.10;66.50
32215;DHT22;18708;53.124;23.190;2022-07-23T12:46:54;33.20;65.30
32215;DHT22;18708;53.124;23.190;2022-07-23T12:49:26;33.80;68.30
32215;DHT22;18708;53.124;23.190;2022-07-23T12:51:52;34.00;65.60
32215;DHT22;18708;53.124;23.190;2022-07-23T12:54:18;33.40;61.60
32215;DHT22;18708;53.124;23.190;2022-07-23T12:56:44;33.60;65.20
32215;DHT22;18708;53.124;23.190;2022-07-23T12:59:11;34.10;65.00
32215;DHT22;18708;53.124;23.190;2022-07-23T13:01:37;34.70;58.50
32215;DHT22;18708;53.124;23.190;2022-07-23T13:06:29;34.80;59.90
32215;DHT22;18708;53.124;23.190;2022-07-23T13:08:55;34.80;59.60
32215;DHT22;18708;53.124;23.190;2022-07-23T13:11:21;34.10;61.20
32215;DHT22;18708;53.124;23.190;2022-07-23T13:13:46;34.00;59.80
32215;DHT22;18708;53.124;23.190;2022-07-23T13:16:12;33.80;59.50
32215;DHT22;18708;53.124;23.190;2022-07-23T13:18:38;33.60;60.60
32215;DHT22;18708;53.124;23.190;2022-07-23T13:21:03;33.20;61.80
32215;DHT22;18708;53.124;23.190;2022-07-23T13:23:29;33.20;62.20
32215;DHT22;18708;53.124;23.190;2022-07-23T13:25:54;33.80;63.10
32215;DHT22;18708;53.124;23.190;2022-07-23T13:28:21;33.90;62.10
32215;DHT22;18708;53.124;23.190;2022-07-23T13:30:47;33.80;64.90
32215;DHT22;18708;53.124;23.190;2022-07-23T13:33:15;33.80;67.70
32215;DHT22;18708;53.124;23.190;2022-07-23T13:35:41;33.80;63.00
32215;DHT22;18708;53.124;23.190;2022-07-23T13:38:06;33.40;63.40
32215;DHT22;18708;53.124;23.190;2022-07-23T13:40:36;33.30;62.50
32215;DHT22;18708;53.124;23.190;2022-07-23T13:43:04;33.00;65.50
32215;DHT22;18708;53.124;23.190;2022-07-23T13:45:30;33.00;65.10
32215;DHT22;18708;53.124;23.190;2022-07-23T13:47:55;33.10;67.80
32215;DHT22;18708;53.124;23.190;2022-07-23T13:50:21;33.00;63.30
32215;DHT22;18708;53.124;23.190;2022-07-23T13:52:46;33.20;63.40
32215;DHT22;18708;53.124;23.190;2022-07-23T13:55:12;33.50;62.50
32215;DHT22;18708;53.124;23.190;2022-07-23T13:57:38;33.50;64.50
32215;DHT22;18708;53.124;23.190;2022-07-23T14:00:04;33.50;61.90
32215;DHT22;18708;53.124;23.190;2022-07-23T14:02:31;33.70;64.20
32215;DHT22;18708;53.124;23.190;2022-07-23T14:04:56;33.70;64.00
32215;DHT22;18708;53.124;23.190;2022-07-23T14:07:22;33.20;66.30
32215;DHT22;18708;53.124;23.190;2022-07-23T14:09:47;33.10;70.80
32215;DHT22;18708;53.124;23.190;2022-07-23T14:12:13;32.90;66.80
32215;DHT22;18708;53.124;23.190;2022-07-23T14:14:39;32.80;69.70
32215;DHT22;18708;53.124;23.190;2022-07-23T14:17:04;32.70;66.60
32215;DHT22;18708;53.124;23.190;2022-07-23T14:19:30;32.40;67.10
32215;DHT22;18708;53.124;23.190;2022-07-23T14:21:56;32.00;70.50
32215;DHT22;18708;53.124;23.190;2022-07-23T14:24:21;31.70;68.80
32215;DHT22;18708;53.124;23.190;2022-07-23T14:26:47;31.10;71.00
32215;DHT22;18708;53.124;23.190;2022-07-23T14:29:12;30.50;72.40
32215;DHT22;18708;53.124;23.190;2022-07-23T14:31:38;30.40;72.90
32215;DHT22;18708;53.124;23.190;2022-07-23T14:34:04;30.30;75.40
32215;DHT22;18708;53.124;23.190;2022-07-23T14:36:29;30.40;73.50
32215;DHT22;18708;53.124;23.190;2022-07-23T14:38:55;30.40;73.90
32215;DHT22;18708;53.124;23.190;2022-07-23T14:41:20;30.50;75.80
32215;DHT22;18708;53.124;23.190;2022-07-23T14:43:46;30.60;77.10
32215;DHT22;18708;53.124;23.190;2022-07-23T14:46:12;30.70;74.70
32215;DHT22;18708;53.124;23.190;2022-07-23T14:48:37;30.70;74.70
32215;DHT22;18708;53.124;23.190;2022-07-23T14:51:03;30.80;74.40
32215;DHT22;18708;53.124;23.190;2022-07-23T14:53:29;30.70;75.50
32215;DHT22;18708;53.124;23.190;2022-07-23T14:55:54;30.60;74.40
32215;DHT22;18708;53.124;23.190;2022-07-23T14:58:22;30.60;78.00
32215;DHT22;18708;53.124;23.190;2022-07-23T15:00:48;30.70;73.90
32215;DHT22;18708;53.124;23.190;2022-07-23T15:03:13;30.70;74.90
32215;DHT22;18708;53.124;23.190;2022-07-23T15:05:39;30.80;72.70
32215;DHT22;18708;53.124;23.190;2022-07-23T15:08:04;30.90;75.00
32215;DHT22;18708;53.124;23.190;2022-07-23T15:10:30;31.00;73.10
32215;DHT22;18708;53.124;23.190;2022-07-23T15:12:55;30.90;74.50
32215;DHT22;18708;53.124;23.190;2022-07-23T15:15:21;30.70;72.50
32215;DHT22;18708;53.124;23.190;2022-07-23T15:17:47;30.70;73.50
32215;DHT22;18708;53.124;23.190;2022-07-23T15:20:12;30.40;75.50
32215;DHT22;18708;53.124;23.190;2022-07-23T15:22:38;30.40;76.00
32215;DHT22;18708;53.124;23.190;2022-07-23T15:25:04;30.30;75.10
32215;DHT22;18708;53.124;23.190;2022-07-23T15:27:29;30.20;74.10
32215;DHT22;18708;53.124;23.190;2022-07-23T15:29:55;30.10;77.30
32215;DHT22;18708;53.124;23.190;2022-07-23T15:32:20;30.10;75.30
32215;DHT22;18708;53.124;23.190;2022-07-23T15:34:46;30.20;74.90
32215;DHT22;18708;53.124;23.190;2022-07-23T15:37:11;30.30;75.30
32215;DHT22;18708;53.124;23.190;2022-07-23T15:39:37;30.30;75.40
32215;DHT22;18708;53.124;23.190;2022-07-23T15:42:03;30.30;75.70
32215;DHT22;18708;53.124;23.190;2022-07-23T15:44:28;30.30;76.40
32215;DHT22;18708;53.124;23.190;2022-07-23T15:49:20;30.20;78.40
32215;DHT22;18708;53.124;23.190;2022-07-23T15:51:46;30.10;81.40
32215;DHT22;18708;53.124;23.190;2022-07-23T15:54:12;30.30;75.50
32215;DHT22;18708;53.124;23.190;2022-07-23T15:56:37;30.20;75.90
32215;DHT22;18708;53.124;23.190;2022-07-23T15:59:03;30.20;76.00
32215;DHT22;18708;53.124;23.190;2022-07-23T16:01:28;30.10;75.20
32215;DHT22;18708;53.124;23.190;2022-07-23T16:03:55;30.00;74.50
32215;DHT22;18708;53.124;23.190;2022-07-23T16:06:20;30.00;74.40
32215;DHT22;18708;53.124;23.190;2022-07-23T16:08:46;29.90;74.70
32215;DHT22;18708;53.124;23.190;2022-07-23T16:11:11;29.90;74.40
32215;DHT22;18708;53.124;23.190;2022-07-23T16:13:37;29.80;77.20
32215;DHT22;18708;53.124;23.190;2022-07-23T16:16:03;29.70;78.80
32215;DHT22;18708;53.124;23.190;2022-07-23T16:18:29;29.70;76.50
32215;DHT22;18708;53.124;23.190;2022-07-23T16:20:55;29.70;74.60
32215;DHT22;18708;53.124;23.190;2022-07-23T16:23:21;29.60;73.90
32215;DHT22;18708;53.124;23.190;2022-07-23T16:25:47;29.40;74.90
32215;DHT22;18708;53.124;23.190;2022-07-23T16:28:13;29.30;74.40
32215;DHT22;18708;53.124;23.190;2022-07-23T16:30:38;29.30;73.80
32215;DHT22;18708;53.124;23.190;2022-07-23T16:33:04;26.60;73.90
32215;DHT22;18708;53.124;23.190;2022-07-23T16:35:30;29.00;76.30
32215;DHT22;18708;53.124;23.190;2022-07-23T16:37:56;29.00;77.90
32215;DHT22;18708;53.124;23.190;2022-07-23T16:40:25;28.80;79.50
32215;DHT22;18708;53.124;23.190;2022-07-23T16:42:50;28.70;80.40
32215;DHT22;18708;53.124;23.190;2022-07-23T16:45:16;28.60;86.20
32215;DHT22;18708;53.124;23.190;2022-07-23T16:47:42;28.40;90.10
32215;DHT22;18708;53.124;23.190;2022-07-23T16:50:07;28.40;90.70
32215;DHT22;18708;53.124;23.190;2022-07-23T16:52:33;28.20;94.20
32215;DHT22;18708;53.124;23.190;2022-07-23T16:54:58;28.20;97.90
32215;DHT22;18708;53.124;23.190;2022-07-23T16:57:24;28.10;99.90
32215;DHT22;18708;53.124;23.190;2022-07-23T16:59:49;28.10;99.90
32215;DHT22;18708;53.124;23.190;2022-07-23T17:02:15;28.00;99.90
32215;DHT22;18708;53.124;23.190;2022-07-23T17:04:41;28.00;99.90
32215;DHT22;18708;53.124;23.190;2022-07-23T17:07:07;27.90;99.90
32215;DHT22;18708;53.124;23.190;2022-07-23T17:09:33;27.70;99.90
32215;DHT22;18708;53.124;23.190;2022-07-23T17:11:59;27.40;99.90
32215;DHT22;18708;53.124;23.190;2022-07-23T17:14:24;27.40;99.90
32215;DHT22;18708;53.124;23.190;2022-07-23T17:16:50;27.40;99.90
32215;DHT22;18708;53.124;23.190;2022-07-23T17:19:15;27.20;99.90
32215;DHT22;18708;53.124;23.190;2022-07-23T17:21:41;27.00;99.90
32215;DHT22;18708;53.124;23.190;2022-07-23T17:24:07;27.00;99.90